Aviation Digital Data Service (ADDS)

Output produced by METARs form (1407 UTC 19 July 2019)
found at http://aviationweather.gov/metar/data/
 
METAR text: ETNT 191320Z 30004KT 9999 FEW048 22/10 Q1013 BLU+
Conditions at: ETNT (WITTMUNDHAVEN(GA, DE) observed 1320 UTC 19 July 2019
Temperature: 22.0°C (72°F)
Dewpoint: 10.0°C (50°F) [RH = 46%]
Pressure (altimeter): 29.91 inches Hg (1013.0 mb)
Winds: from the WNW (300 degrees) at 5 MPH (4 knots; 2.1 m/s)
Visibility: 6 or more miles (10+ km)
Ceiling: at least 12,000 feet AGL
Clouds: few clouds at 4800 feet AGL
Weather: no significant weather observed at this time

Forecast for: ETNT (WITTMUNDHAVEN(GA, DE)
Text: TAF ETNT 191300Z 1914/1923 33010KT 9999 NSW SCT040
Forecast period: 1400 to 1600 UTC 19 July 2019
Forecast type: FROM: standard forecast or significant change
Winds: from the NNW (330 degrees) at 12 MPH (10 knots; 5.1 m/s)
Visibility: 6 or more miles 10+ km)
Ceiling: at least 12,000 feet AGL
Clouds: scattered clouds at 4000 feet AGL
Weather: NSW  (no significant weather)
Text: BECMG 1916/1918 07008KT 9999 NSW BKN045 BY ETGL
Forecast period: 1600 to 2300 UTC 19 July 2019
Forecast type: BECOMING: Conditions expected to become as follows by 1800 UTC 19 July 2019
Winds: from the ENE (70 degrees) at 9 MPH (8 knots; 4.1 m/s)
Visibility: 6 or more miles 10+ km)
Ceiling: 4500 feet AGL
Clouds: broken clouds at 4500 feet AGL
Weather: NSW  (no significant weather)